createdAt,value
2017-05-26T00:02:00.683Z,95.22
2017-05-26T00:11:58.482Z,96.22
2017-05-26T00:16:54.567Z,96.66
2017-05-26T00:21:51.104Z,95.89
2017-05-26T00:26:49.198Z,96.80
2017-05-26T00:41:49.415Z,99.99
2017-05-26T00:46:46.862Z,99.99
2017-05-26T00:51:50.814Z,99.99
2017-05-26T01:01:48.942Z,99.99
2017-05-26T01:06:48.469Z,99.99
2017-05-26T01:11:45.988Z,99.99
2017-05-26T01:16:47.809Z,99.52
2017-05-26T01:41:56.093Z,99.43
2017-05-26T01:46:53.694Z,98.95
2017-05-26T01:51:51.064Z,99.52
2017-05-26T02:01:47.369Z,99.99
2017-05-26T02:06:43.474Z,99.52
2017-05-26T02:11:40.650Z,99.72
2017-05-26T02:16:37.689Z,99.99
2017-05-26T02:21:34.086Z,99.99
2017-05-26T02:31:30.956Z,99.99
2017-05-26T02:36:27.534Z,99.99
2017-05-26T02:41:23.747Z,99.99
2017-05-26T02:46:19.471Z,99.99
2017-05-26T02:51:15.823Z,99.99
2017-05-26T02:56:11.865Z,99.99
2017-05-26T03:01:07.634Z,99.99
2017-05-26T03:06:04.239Z,99.99
2017-05-26T03:16:03.038Z,99.99
2017-05-26T03:20:58.180Z,99.99
2017-05-26T03:25:54.254Z,99.99
2017-05-26T03:30:50.120Z,99.99
2017-05-26T03:35:45.881Z,99.99
2017-05-26T03:45:45.403Z,99.99
2017-05-26T03:50:40.535Z,99.99
2017-05-26T03:55:37.484Z,99.99
2017-05-26T04:00:33.344Z,99.99
2017-05-26T04:05:31.327Z,99.99
2017-05-26T04:10:26.889Z,99.99
2017-05-26T04:15:24.312Z,99.99
2017-05-26T04:20:20.176Z,99.99
2017-05-26T04:25:15.682Z,99.99
2017-05-26T04:30:12.868Z,99.99
2017-05-26T04:35:09.251Z,99.99
2017-05-26T04:40:05.651Z,97.95
2017-05-26T04:45:01.953Z,97.75
2017-05-26T04:49:58.571Z,95.89
2017-05-26T04:54:55.353Z,95.31
2017-05-26T04:59:53.233Z,92.00
2017-05-26T05:04:50.059Z,88.98
2017-05-26T05:09:46.755Z,90.52
2017-05-26T05:19:49.345Z,91.91
2017-05-26T05:29:46.937Z,92.86
2017-05-26T05:34:42.772Z,90.75
2017-05-26T05:39:38.775Z,88.87
2017-05-26T05:49:38.483Z,88.06
2017-05-26T05:54:37.112Z,88.30
2017-05-26T06:04:36.921Z,90.22
2017-05-26T06:09:34.752Z,91.91
2017-05-26T06:14:30.945Z,92.68
2017-05-26T06:29:38.322Z,92.39
2017-05-26T06:34:35.709Z,91.91
2017-05-26T06:39:36.890Z,92.10
2017-05-26T06:44:34.541Z,93.35
2017-05-26T06:54:30.864Z,92.43
2017-05-26T07:09:38.514Z,92.53
2017-05-26T07:14:41.819Z,92.91
2017-05-26T07:19:37.910Z,91.66
2017-05-26T07:24:34.902Z,91.38
2017-05-26T08:04:53.333Z,79.93
2017-05-26T08:09:51.702Z,78.52
2017-05-26T08:24:58.987Z,77.71
2017-05-26T08:29:55.929Z,74.02
2017-05-26T08:34:59.544Z,74.85
2017-05-26T08:39:56.608Z,74.60
2017-05-26T08:44:55.515Z,72.32
2017-05-26T08:49:51.443Z,73.21
2017-05-26T08:54:48.104Z,72.13
2017-05-26T08:59:47.990Z,69.13
2017-05-26T09:04:52.220Z,69.40
2017-05-26T09:09:51.845Z,66.08
2017-05-26T09:19:48.306Z,66.91
2017-05-26T09:24:45.161Z,63.50
2017-05-26T09:39:40.903Z,66.72
2017-05-26T09:44:39.937Z,66.91
2017-05-26T09:54:36.930Z,63.79
2017-05-26T09:59:32.830Z,64.34
2017-05-26T10:04:29.343Z,65.40
2017-05-26T10:09:24.543Z,66.33
2017-05-26T10:14:20.461Z,66.98
2017-05-26T10:19:20.806Z,62.92
2017-05-26T10:24:16.767Z,63.37
2017-05-26T10:34:15.850Z,61.79
2017-05-26T10:39:13.032Z,59.00
2017-05-26T10:44:09.644Z,58.98
2017-05-26T10:49:06.213Z,60.50
2017-05-26T10:54:02.822Z,57.26
2017-05-26T11:04:01.414Z,53.95
2017-05-26T11:09:01.265Z,52.69
2017-05-26T11:13:57.309Z,53.59
2017-05-26T11:23:56.256Z,48.34
2017-05-26T11:28:54.337Z,51.87
2017-05-26T11:33:50.213Z,52.62
2017-05-26T11:38:49.311Z,50.56
2017-05-26T11:43:45.324Z,50.63
2017-05-26T11:58:44.962Z,50.60
2017-05-26T12:03:44.022Z,49.19
2017-05-26T12:08:39.722Z,48.08
2017-05-26T12:13:36.192Z,48.27
2017-05-26T12:18:32.546Z,48.35
2017-05-26T12:23:31.284Z,46.48
2017-05-26T12:28:27.658Z,47.91
2017-05-26T12:33:23.067Z,49.44
2017-05-26T12:38:18.017Z,48.85
2017-05-26T12:43:13.637Z,48.20
2017-05-26T12:48:09.821Z,46.50
2017-05-26T12:53:06.093Z,43.44
2017-05-26T12:58:02.211Z,42.56
2017-05-26T13:02:58.388Z,42.66
2017-05-26T13:12:57.074Z,43.71
2017-05-26T13:17:52.669Z,43.35
2017-05-26T13:22:47.504Z,45.61
2017-05-26T13:27:42.924Z,45.48
2017-05-26T13:32:38.085Z,44.17
2017-05-26T13:37:36.480Z,44.19
2017-05-26T13:42:34.591Z,45.58
2017-05-26T13:52:32.524Z,48.18
2017-05-26T13:57:27.997Z,48.97
2017-05-26T14:02:25.321Z,49.56
2017-05-26T14:07:22.301Z,50.50
2017-05-26T14:12:20.681Z,51.45
2017-05-26T14:17:15.213Z,51.84
2017-05-26T14:22:11.620Z,49.39
2017-05-26T14:27:06.545Z,49.10
2017-05-26T14:32:02.094Z,51.23
2017-05-26T14:36:57.618Z,50.45
2017-05-26T14:41:53.555Z,48.35
2017-05-26T14:46:48.999Z,47.84
2017-05-26T14:51:45.392Z,47.55
2017-05-26T14:56:41.463Z,46.48
2017-05-26T15:01:36.876Z,47.94
2017-05-26T15:06:33.476Z,48.90
2017-05-26T15:11:29.738Z,47.60
2017-05-26T15:16:25.501Z,46.12
2017-05-26T15:21:21.430Z,47.86
2017-05-26T15:26:18.597Z,47.77
2017-05-26T15:31:14.106Z,48.22
2017-05-26T15:36:11.306Z,49.10
2017-05-26T15:41:06.799Z,49.10
2017-05-26T15:46:04.247Z,48.42
2017-05-26T15:50:59.580Z,47.45
2017-05-26T15:55:55.823Z,47.26
2017-05-26T16:00:51.832Z,47.38
2017-05-26T16:05:47.882Z,48.06
2017-05-26T16:10:44.535Z,48.71
2017-05-26T16:15:42.808Z,48.03
2017-05-26T16:20:38.299Z,48.13
2017-05-26T16:25:34.625Z,49.39
2017-05-26T16:30:31.392Z,49.19
2017-05-26T16:35:27.496Z,49.19
2017-05-26T16:40:24.167Z,49.49
2017-05-26T16:45:20.194Z,49.19
2017-05-26T16:50:16.904Z,49.65
2017-05-26T16:55:12.838Z,50.33
2017-05-26T17:00:08.857Z,50.24
2017-05-26T17:05:05.243Z,50.33
2017-05-26T17:10:02.024Z,48.79
2017-05-26T17:15:07.994Z,49.27
2017-05-26T17:30:12.309Z,50.43
2017-05-26T17:35:07.923Z,50.14
2017-05-26T17:40:05.548Z,51.78
2017-05-26T17:45:04.615Z,51.18
2017-05-26T17:50:00.343Z,51.86
2017-05-26T17:54:56.195Z,51.76
2017-05-26T17:59:52.858Z,52.53
2017-05-26T18:04:49.319Z,53.02
2017-05-26T18:14:45.092Z,53.86
2017-05-26T18:19:40.886Z,54.53
2017-05-26T18:24:36.885Z,55.51
2017-05-26T18:29:32.770Z,55.57
2017-05-26T18:34:29.374Z,56.45
2017-05-26T18:39:26.999Z,57.21
2017-05-26T18:44:22.232Z,57.51
2017-05-26T18:54:20.775Z,57.96
2017-05-26T18:59:18.079Z,58.83
2017-05-26T19:04:14.865Z,59.02
2017-05-26T19:09:10.168Z,59.48
2017-05-26T19:14:05.892Z,59.09
2017-05-26T19:29:02.689Z,60.99
2017-05-26T19:44:00.974Z,62.51
2017-05-26T19:48:58.318Z,63.47
2017-05-26T19:53:54.126Z,64.15
2017-05-26T19:58:50.560Z,64.79
2017-05-26T20:03:46.175Z,65.66
2017-05-26T20:08:44.166Z,66.14
2017-05-26T20:18:39.449Z,66.88
2017-05-26T20:23:37.568Z,67.36
2017-05-26T20:28:35.832Z,68.13
2017-05-26T20:33:35.925Z,67.94
2017-05-26T20:38:33.987Z,68.90
2017-05-26T20:43:29.847Z,68.68
2017-05-26T20:58:33.859Z,70.98
2017-05-26T21:03:32.456Z,71.37
2017-05-26T21:08:30.138Z,72.20
2017-05-26T21:13:29.265Z,72.88
2017-05-26T21:18:27.389Z,73.55
2017-05-26T21:33:26.324Z,76.21
2017-05-26T21:38:22.210Z,77.08
2017-05-26T21:43:19.314Z,77.84
2017-05-26T21:48:18.833Z,77.94
2017-05-26T21:53:13.507Z,78.90
2017-05-26T21:58:12.858Z,79.67
2017-05-26T22:03:08.078Z,80.40
2017-05-26T22:08:07.807Z,81.07
2017-05-26T22:18:03.952Z,82.04
2017-05-26T22:23:03.963Z,82.14
2017-05-26T22:28:00.125Z,82.71
2017-05-26T22:32:56.715Z,83.25
2017-05-26T22:37:53.973Z,83.83
2017-05-26T22:47:53.634Z,84.69
2017-05-26T22:57:50.649Z,84.88
2017-05-26T23:02:47.120Z,85.13
2017-05-26T23:07:44.059Z,85.80
2017-05-26T23:12:40.079Z,86.28
2017-05-26T23:27:41.480Z,87.43
2017-05-26T23:37:42.600Z,87.68
2017-05-26T23:42:39.670Z,88.54
2017-05-26T23:47:35.709Z,88.45
2017-05-26T23:52:31.952Z,87.96
2017-05-26T23:57:28.836Z,87.96
